createdAt,value
2018-10-17T00:01:14.396Z,9.20
2018-10-17T00:06:32.870Z,9.90
2018-10-17T00:11:51.498Z,9.00
2018-10-17T00:17:10.419Z,9.80
2018-10-17T00:22:28.986Z,9.20
2018-10-17T00:27:47.494Z,11.00
2018-10-17T00:33:06.626Z,9.73
2018-10-17T00:38:25.390Z,10.25
2018-10-17T00:43:43.918Z,9.43
2018-10-17T00:49:02.497Z,9.33
2018-10-17T00:54:21.039Z,9.95
2018-10-17T00:59:39.650Z,9.30
2018-10-17T01:04:58.240Z,8.95
2018-10-17T01:10:16.818Z,8.68
2018-10-17T01:15:35.310Z,7.90
2018-10-17T01:20:53.869Z,7.90
2018-10-17T01:26:12.527Z,7.30
2018-10-17T01:31:31.630Z,7.07
2018-10-17T01:36:50.177Z,7.13
2018-10-17T01:42:08.722Z,8.60
2018-10-17T01:47:27.251Z,8.20
2018-10-17T01:52:45.834Z,7.10
2018-10-17T01:58:04.610Z,5.30
2018-10-17T02:03:23.144Z,7.00
2018-10-17T02:08:41.639Z,7.10
2018-10-17T02:14:00.140Z,6.83
2018-10-17T02:19:18.667Z,6.87
2018-10-17T02:24:37.234Z,6.23
2018-10-17T02:29:55.817Z,7.03
2018-10-17T02:35:14.430Z,6.42
2018-10-17T02:40:32.974Z,7.53
2018-10-17T02:45:51.483Z,7.60
2018-10-17T02:51:10.058Z,7.37
2018-10-17T02:56:28.638Z,7.47
2018-10-17T03:01:47.130Z,6.70
2018-10-17T03:07:06.756Z,5.90
2018-10-17T03:12:25.312Z,6.10
2018-10-17T03:17:43.852Z,6.07
2018-10-17T03:23:02.374Z,6.00
2018-10-17T03:28:20.891Z,5.37
2018-10-17T03:33:39.374Z,5.50
2018-10-17T03:38:57.941Z,4.63
2018-10-17T03:44:16.524Z,5.40
2018-10-17T03:49:35.084Z,5.47
2018-10-17T03:54:53.624Z,5.27
2018-10-17T04:00:12.178Z,5.08
2018-10-17T04:05:30.944Z,5.00
2018-10-17T04:10:49.459Z,5.17
2018-10-17T04:16:07.971Z,5.10
2018-10-17T04:21:26.494Z,5.23
2018-10-17T04:26:45.147Z,4.53
2018-10-17T04:32:03.696Z,5.10
2018-10-17T04:37:23.121Z,5.50
2018-10-17T04:42:41.652Z,5.87
2018-10-17T04:48:00.215Z,5.70
2018-10-17T04:53:18.792Z,5.87
2018-10-17T04:58:37.342Z,5.60
2018-10-17T05:03:55.861Z,5.90
2018-10-17T05:09:14.396Z,5.57
2018-10-17T05:14:33.003Z,5.57
2018-10-17T05:19:51.510Z,5.63
2018-10-17T05:25:10.355Z,5.60
2018-10-17T05:30:28.873Z,5.23
2018-10-17T05:35:47.396Z,5.10
2018-10-17T05:41:05.960Z,5.30
2018-10-17T05:46:24.867Z,5.67
2018-10-17T05:51:43.406Z,5.37
2018-10-17T05:57:02.756Z,6.67
2018-10-17T06:02:27.560Z,6.63
2018-10-17T06:07:46.803Z,6.83
2018-10-17T06:13:05.589Z,7.10
2018-10-17T06:18:24.139Z,6.93
2018-10-17T06:23:43.183Z,5.93
2018-10-17T06:29:01.868Z,6.40
2018-10-17T06:34:20.546Z,7.03
2018-10-17T06:39:39.115Z,7.50
2018-10-17T06:44:57.649Z,7.70
2018-10-17T06:50:16.179Z,7.60
2018-10-17T06:55:34.707Z,7.47
2018-10-17T07:00:53.270Z,7.47
2018-10-17T07:06:11.836Z,7.80
2018-10-17T07:11:31.024Z,7.80
2018-10-17T07:16:49.634Z,6.80
2018-10-17T07:22:08.731Z,7.53
2018-10-17T07:27:27.278Z,7.97
2018-10-17T07:32:45.803Z,7.00
2018-10-17T07:38:04.548Z,7.80
2018-10-17T07:43:23.111Z,6.83
2018-10-17T07:48:41.611Z,6.93
2018-10-17T07:54:00.262Z,7.20
2018-10-17T07:59:18.857Z,6.83
2018-10-17T08:04:37.410Z,7.00
2018-10-17T08:09:56.019Z,8.10
2018-10-17T08:15:14.612Z,8.90
2018-10-17T08:20:33.159Z,8.73
2018-10-17T08:25:51.638Z,7.07
2018-10-17T08:31:10.200Z,13.07
2018-10-17T08:36:28.909Z,7.47
2018-10-17T08:41:47.341Z,7.97
2018-10-17T08:47:06.233Z,9.67
2018-10-17T08:52:24.803Z,8.00
2018-10-17T08:57:43.405Z,8.40
2018-10-17T09:03:01.931Z,8.27
2018-10-17T09:08:20.549Z,8.30
2018-10-17T09:13:39.145Z,7.23
2018-10-17T09:18:57.731Z,7.07
2018-10-17T09:24:16.337Z,7.00
2018-10-17T09:29:34.810Z,6.73
2018-10-17T09:34:53.396Z,6.17
2018-10-17T09:40:12.273Z,6.00
2018-10-17T09:45:31.336Z,6.40
2018-10-17T09:50:49.872Z,6.80
2018-10-17T09:56:09.934Z,6.97
2018-10-17T10:01:38.682Z,7.13
2018-10-17T10:06:57.203Z,7.13
2018-10-17T10:12:15.863Z,6.17
2018-10-17T10:17:34.457Z,5.73
2018-10-17T10:22:52.931Z,6.30
2018-10-17T10:28:11.518Z,6.03
2018-10-17T10:33:29.969Z,6.27
2018-10-17T10:38:48.528Z,6.27
2018-10-17T10:44:07.230Z,6.23
2018-10-17T10:49:25.751Z,6.47
2018-10-17T10:54:44.768Z,5.73
2018-10-17T11:00:03.405Z,5.73
2018-10-17T11:05:22.309Z,7.12
2018-10-17T11:10:40.776Z,5.70
2018-10-17T11:15:59.278Z,6.47
2018-10-17T11:21:17.961Z,6.63
2018-10-17T11:26:36.436Z,6.30
2018-10-17T11:31:54.982Z,6.47
2018-10-17T11:37:13.953Z,7.03
2018-10-17T11:42:34.883Z,5.97
2018-10-17T11:47:54.906Z,6.50
2018-10-17T11:53:13.499Z,6.80
2018-10-17T11:58:32.022Z,5.93
2018-10-17T12:03:50.678Z,6.40
2018-10-17T12:09:09.918Z,6.10
2018-10-17T12:14:31.244Z,6.47
2018-10-17T12:19:49.899Z,6.53
2018-10-17T12:25:08.680Z,6.20
2018-10-17T12:30:27.873Z,6.57
2018-10-17T12:35:47.363Z,6.70
2018-10-17T12:41:06.233Z,6.97
2018-10-17T12:46:24.572Z,6.70
2018-10-17T12:51:43.154Z,6.80
2018-10-17T12:57:01.703Z,6.93
2018-10-17T13:02:20.279Z,7.63
2018-10-17T13:07:39.071Z,6.87
2018-10-17T13:12:57.693Z,6.87
2018-10-17T13:18:16.213Z,6.87
2018-10-17T13:23:34.751Z,6.80
2018-10-17T13:28:55.425Z,6.80
2018-10-17T13:34:14.020Z,6.67
2018-10-17T13:39:33.137Z,6.97
2018-10-17T13:44:52.540Z,6.50
2018-10-17T13:50:11.098Z,7.20
2018-10-17T13:55:29.707Z,7.07
2018-10-17T14:00:48.276Z,6.73
2018-10-17T14:06:06.865Z,7.20
2018-10-17T14:11:25.436Z,7.20
2018-10-17T14:16:46.250Z,7.07
2018-10-17T14:22:05.376Z,7.73
2018-10-17T14:27:23.927Z,7.10
2018-10-17T14:32:42.573Z,6.90
2018-10-17T14:38:01.943Z,7.17
2018-10-17T14:43:20.323Z,6.97
2018-10-17T14:48:38.975Z,6.63
2018-10-17T14:53:57.519Z,6.57
2018-10-17T14:59:16.139Z,7.43
2018-10-17T15:04:34.618Z,7.00
2018-10-17T15:09:53.191Z,7.23
2018-10-17T15:15:13.081Z,8.80
2018-10-17T15:20:31.535Z,8.00
2018-10-17T15:25:50.078Z,7.07
2018-10-17T15:31:08.719Z,7.40
2018-10-17T15:36:27.215Z,7.70
2018-10-17T15:41:45.787Z,8.00
2018-10-17T15:47:04.750Z,8.17
2018-10-17T15:52:23.296Z,7.97
2018-10-17T15:57:41.827Z,7.60
2018-10-17T16:03:00.373Z,8.67
2018-10-17T16:08:19.875Z,9.17
2018-10-17T16:13:38.444Z,9.80
2018-10-17T16:18:56.966Z,10.20
2018-10-17T16:24:15.671Z,9.90
2018-10-17T16:29:34.305Z,9.07
2018-10-17T16:34:53.064Z,9.13
2018-10-17T16:40:12.680Z,9.60
2018-10-17T16:45:31.335Z,10.27
2018-10-17T16:50:49.982Z,9.67
2018-10-17T16:56:09.043Z,10.33
2018-10-17T17:01:27.714Z,11.67
2018-10-17T17:06:47.276Z,12.63
2018-10-17T17:12:06.566Z,12.63
2018-10-17T17:17:25.732Z,12.93
2018-10-17T17:22:44.430Z,15.10
2018-10-17T17:28:03.973Z,14.73
2018-10-17T17:33:22.539Z,14.83
2018-10-17T17:38:41.126Z,17.27
2018-10-17T17:44:00.184Z,17.37
2018-10-17T17:49:18.994Z,17.27
2018-10-17T17:54:37.620Z,16.63
2018-10-17T17:59:56.196Z,20.53
2018-10-17T18:10:25.396Z,21.13
2018-10-17T18:15:45.952Z,19.83
2018-10-17T18:21:04.802Z,18.20
2018-10-17T18:26:23.308Z,19.37
2018-10-17T18:31:41.843Z,20.20
2018-10-17T18:37:00.365Z,21.27
2018-10-17T18:42:19.692Z,19.87
2018-10-17T18:47:38.306Z,22.07
2018-10-17T18:52:56.787Z,24.37
2018-10-17T18:58:15.754Z,26.87
2018-10-17T19:03:34.326Z,25.90
2018-10-17T19:08:52.874Z,28.50
2018-10-17T19:14:11.584Z,30.47
2018-10-17T19:19:30.196Z,32.80
2018-10-17T19:24:48.843Z,31.77
2018-10-17T19:30:08.730Z,37.83
2018-10-17T19:35:27.311Z,35.90
2018-10-17T19:40:45.910Z,35.17
2018-10-17T19:46:04.474Z,36.57
2018-10-17T19:51:22.997Z,36.10
2018-10-17T19:56:41.542Z,38.03
2018-10-17T20:02:00.089Z,39.53
2018-10-17T20:07:18.746Z,38.17
2018-10-17T20:12:37.533Z,31.13
2018-10-17T20:17:56.068Z,34.47
2018-10-17T20:23:14.608Z,34.07
2018-10-17T20:28:33.128Z,36.03
2018-10-17T20:33:51.671Z,37.37
2018-10-17T20:39:14.842Z,37.57
2018-10-17T20:44:33.423Z,39.70
2018-10-17T20:49:51.925Z,36.87
2018-10-17T20:55:10.493Z,33.00
2018-10-17T21:00:29.054Z,37.93
2018-10-17T21:05:47.573Z,39.17
2018-10-17T21:11:06.251Z,31.43
2018-10-17T21:16:24.747Z,28.60
2018-10-17T21:21:43.307Z,29.37
2018-10-17T21:27:01.851Z,26.57
2018-10-17T21:32:20.354Z,28.73
2018-10-17T21:37:38.940Z,26.97
2018-10-17T21:42:57.439Z,29.47
2018-10-17T21:48:16.211Z,27.87
2018-10-17T21:53:34.815Z,25.57
2018-10-17T21:58:54.065Z,25.47
2018-10-17T22:04:12.570Z,25.50
2018-10-17T22:09:31.088Z,25.23
2018-10-17T22:14:49.722Z,24.67
2018-10-17T22:20:08.356Z,26.27
2018-10-17T22:25:26.861Z,26.47
2018-10-17T22:30:45.423Z,27.40
2018-10-17T22:36:03.979Z,26.07
2018-10-17T22:41:22.637Z,25.57
2018-10-17T22:46:41.488Z,24.73
2018-10-17T22:52:00.032Z,27.47
2018-10-17T22:57:18.526Z,32.97
2018-10-17T23:02:37.099Z,34.03
2018-10-17T23:07:55.822Z,46.00
2018-10-17T23:13:14.330Z,37.27
2018-10-17T23:18:32.885Z,36.43
2018-10-17T23:23:51.433Z,26.87
2018-10-17T23:29:10.090Z,25.13
2018-10-17T23:34:29.149Z,25.73
2018-10-17T23:39:48.162Z,29.27
2018-10-17T23:45:07.836Z,32.70
2018-10-17T23:50:26.452Z,40.60
2018-10-17T23:55:45.083Z,40.70
